createdAt,value
2023-09-17T00:00:39.887Z,12.57
2023-09-17T00:03:06.666Z,13.07
2023-09-17T00:05:33.412Z,12.23
2023-09-17T00:07:59.967Z,12.35
2023-09-17T00:10:27.131Z,12.00
2023-09-17T00:12:56.033Z,13.20
2023-09-17T00:15:24.075Z,12.93
2023-09-17T00:17:50.687Z,12.45
2023-09-17T00:20:17.339Z,12.63
2023-09-17T00:22:43.949Z,12.93
2023-09-17T00:25:11.345Z,12.30
2023-09-17T00:27:38.195Z,13.00
2023-09-17T00:30:05.188Z,14.02
2023-09-17T00:32:31.759Z,13.60
2023-09-17T00:34:58.366Z,13.32
2023-09-17T00:37:24.933Z,14.77
2023-09-17T00:39:51.637Z,14.52
2023-09-17T00:42:18.267Z,13.75
2023-09-17T00:44:44.832Z,14.23
2023-09-17T00:47:11.748Z,13.57
2023-09-17T00:49:38.562Z,14.27
2023-09-17T00:52:16.674Z,14.02
2023-09-17T00:54:45.610Z,13.23
2023-09-17T00:57:13.193Z,12.95
2023-09-17T00:59:40.421Z,13.65
2023-09-17T01:02:07.117Z,13.18
2023-09-17T01:04:34.220Z,14.45
2023-09-17T01:07:01.369Z,13.30
2023-09-17T01:09:29.866Z,13.38
2023-09-17T01:11:57.175Z,13.50
2023-09-17T01:14:23.832Z,13.35
2023-09-17T01:16:51.039Z,11.45
2023-09-17T01:19:25.308Z,13.52
2023-09-17T01:22:03.550Z,13.82
2023-09-17T01:24:44.190Z,12.15
2023-09-17T01:27:13.980Z,12.23
2023-09-17T01:29:42.725Z,13.43
2023-09-17T01:32:11.484Z,14.03
2023-09-17T01:34:41.259Z,13.48
2023-09-17T01:37:35.536Z,14.30
2023-09-17T01:40:12.386Z,12.82
2023-09-17T01:42:45.426Z,13.05
2023-09-17T01:45:17.749Z,12.95
2023-09-17T01:47:47.181Z,13.43
2023-09-17T01:50:17.071Z,11.85
2023-09-17T01:52:45.292Z,13.50
2023-09-17T01:55:13.385Z,12.18
2023-09-17T01:57:40.799Z,13.40
2023-09-17T02:00:15.881Z,12.70
2023-09-17T02:02:50.576Z,13.85
2023-09-17T02:05:18.408Z,12.15
2023-09-17T02:07:45.760Z,12.63
2023-09-17T02:10:13.056Z,12.23
2023-09-17T02:12:40.194Z,13.57
2023-09-17T02:15:07.639Z,13.52
2023-09-17T02:17:34.455Z,12.88
2023-09-17T02:20:01.093Z,11.27
2023-09-17T02:22:28.056Z,12.10
2023-09-17T02:24:55.062Z,12.50
2023-09-17T02:27:21.887Z,14.13
2023-09-17T02:29:48.545Z,14.25
2023-09-17T02:32:15.179Z,13.45
2023-09-17T02:34:41.993Z,13.35
2023-09-17T02:37:08.653Z,12.48
2023-09-17T02:39:36.615Z,13.18
2023-09-17T02:42:04.330Z,12.45
2023-09-17T02:44:30.910Z,12.13
2023-09-17T02:46:57.688Z,12.73
2023-09-17T02:49:24.866Z,14.73
2023-09-17T02:51:52.069Z,14.82
2023-09-17T02:54:18.678Z,14.52
2023-09-17T02:56:45.297Z,13.60
2023-09-17T02:59:12.331Z,14.65
2023-09-17T03:01:39.553Z,14.15
2023-09-17T03:04:06.793Z,13.32
2023-09-17T03:06:34.562Z,13.02
2023-09-17T03:09:02.416Z,13.40
2023-09-17T03:11:29.556Z,13.98
2023-09-17T03:14:00.540Z,13.27
2023-09-17T03:16:27.269Z,13.07
2023-09-17T03:18:53.906Z,13.32
2023-09-17T03:21:20.869Z,13.27
2023-09-17T03:23:47.469Z,13.68
2023-09-17T03:26:14.134Z,14.40
2023-09-17T03:28:40.797Z,13.88
2023-09-17T03:31:07.566Z,14.50
2023-09-17T03:33:37.218Z,15.25
2023-09-17T03:36:04.645Z,15.38
2023-09-17T03:38:31.467Z,17.52
2023-09-17T03:41:00.463Z,18.08
2023-09-17T03:43:28.588Z,18.17
2023-09-17T03:45:55.231Z,16.90
2023-09-17T03:48:22.837Z,18.38
2023-09-17T03:50:50.460Z,17.67
2023-09-17T03:53:17.572Z,18.98
2023-09-17T03:55:46.054Z,18.65
2023-09-17T03:58:13.438Z,17.63
2023-09-17T04:00:43.353Z,15.65
2023-09-17T04:03:10.159Z,16.07
2023-09-17T04:05:37.476Z,18.20
2023-09-17T04:08:04.474Z,17.05
2023-09-17T04:10:31.480Z,16.27
2023-09-17T04:12:58.131Z,15.30
2023-09-17T04:15:24.791Z,18.00
2023-09-17T04:17:52.435Z,15.98
2023-09-17T04:20:20.502Z,17.77
2023-09-17T04:22:50.198Z,17.77
2023-09-17T04:25:20.060Z,17.60
2023-09-17T04:27:48.846Z,16.77
2023-09-17T04:30:18.296Z,17.58
2023-09-17T04:32:47.225Z,17.35
2023-09-17T04:35:19.704Z,16.38
2023-09-17T04:37:49.678Z,18.30
2023-09-17T04:40:19.261Z,18.02
2023-09-17T04:42:49.973Z,17.13
2023-09-17T04:45:36.476Z,16.70
2023-09-17T04:48:10.442Z,18.10
2023-09-17T04:50:40.279Z,17.80
2023-09-17T04:53:07.155Z,19.20
2023-09-17T04:55:34.428Z,18.65
2023-09-17T04:58:01.337Z,18.05
2023-09-17T05:00:28.418Z,18.85
2023-09-17T05:02:55.626Z,18.92
2023-09-17T05:05:25.034Z,17.90
2023-09-17T05:07:53.610Z,19.35
2023-09-17T05:10:20.394Z,18.05
2023-09-17T05:12:47.210Z,18.15
2023-09-17T05:15:14.087Z,17.27
2023-09-17T05:17:42.045Z,17.52
2023-09-17T05:20:10.018Z,18.48
2023-09-17T05:22:37.245Z,18.25
2023-09-17T05:25:05.473Z,16.48
2023-09-17T05:27:32.616Z,17.02
2023-09-17T05:30:01.716Z,15.13
2023-09-17T05:32:29.742Z,17.40
2023-09-17T05:35:00.989Z,16.17
2023-09-17T05:37:28.296Z,15.18
2023-09-17T05:39:55.910Z,15.98
2023-09-17T05:42:22.545Z,15.35
2023-09-17T05:44:49.336Z,16.92
2023-09-17T05:47:15.976Z,18.05
2023-09-17T05:49:43.042Z,17.52
2023-09-17T05:52:09.815Z,19.15
2023-09-17T05:54:37.609Z,20.92
2023-09-17T05:57:04.468Z,18.80
2023-09-17T05:59:32.665Z,18.20
2023-09-17T06:02:00.434Z,20.20
2023-09-17T06:04:27.644Z,19.45
2023-09-17T06:06:55.415Z,20.02
2023-09-17T06:09:22.025Z,19.95
2023-09-17T06:11:51.152Z,21.02
2023-09-17T06:14:18.407Z,18.75
2023-09-17T06:16:56.553Z,19.58
2023-09-17T06:19:25.567Z,20.55
2023-09-17T06:21:53.364Z,19.20
2023-09-17T06:24:20.100Z,19.27
2023-09-17T06:26:46.846Z,19.88
2023-09-17T06:29:13.413Z,20.50
2023-09-17T06:31:41.329Z,20.98
2023-09-17T06:34:08.675Z,20.83
2023-09-17T06:36:40.066Z,22.20
2023-09-17T06:39:07.928Z,21.20
2023-09-17T06:41:38.040Z,22.55
2023-09-17T06:44:05.922Z,21.77
2023-09-17T06:46:33.205Z,20.80
2023-09-17T06:49:00.203Z,23.35
2023-09-17T06:51:26.913Z,20.65
2023-09-17T06:53:53.842Z,20.83
2023-09-17T06:56:20.887Z,21.35
2023-09-17T06:58:47.454Z,19.63
2023-09-17T07:01:14.095Z,18.65
2023-09-17T07:03:40.706Z,17.67
2023-09-17T07:06:07.372Z,16.75
2023-09-17T07:08:34.050Z,15.77
2023-09-17T07:11:01.869Z,14.50
2023-09-17T07:13:28.561Z,15.63
2023-09-17T07:15:55.114Z,14.75
2023-09-17T07:18:22.488Z,14.63
2023-09-17T07:20:50.978Z,14.18
2023-09-17T07:23:17.583Z,13.93
2023-09-17T07:25:45.935Z,13.75
2023-09-17T07:28:12.733Z,12.80
2023-09-17T07:30:39.747Z,11.65
2023-09-17T07:33:06.862Z,12.18
2023-09-17T07:35:34.350Z,11.73
2023-09-17T07:38:01.156Z,11.73
2023-09-17T07:40:28.403Z,11.15
2023-09-17T07:42:55.004Z,10.27
2023-09-17T07:45:21.585Z,11.18
2023-09-17T07:47:48.187Z,10.35
2023-09-17T07:50:14.811Z,10.57
2023-09-17T07:52:42.734Z,10.02
2023-09-17T07:55:10.501Z,10.10
2023-09-17T07:57:37.286Z,10.27
2023-09-17T08:00:05.584Z,10.30
2023-09-17T08:02:39.793Z,9.60
2023-09-17T08:05:08.386Z,10.68
2023-09-17T08:07:35.979Z,9.73
2023-09-17T08:10:04.704Z,9.38
2023-09-17T08:12:33.826Z,9.63
2023-09-17T08:15:00.535Z,9.10
2023-09-17T08:17:27.233Z,9.77
2023-09-17T08:19:55.396Z,9.50
2023-09-17T08:22:23.405Z,9.15
2023-09-17T08:24:50.008Z,9.48
2023-09-17T08:27:18.132Z,9.02
2023-09-17T08:29:45.017Z,8.90
2023-09-17T08:32:12.280Z,8.15
2023-09-17T08:34:38.976Z,9.25
2023-09-17T08:37:05.732Z,8.18
2023-09-17T08:39:32.647Z,8.57
2023-09-17T08:42:02.822Z,7.63
2023-09-17T08:44:32.096Z,8.10
2023-09-17T08:47:00.099Z,7.68
2023-09-17T08:49:26.860Z,7.25
2023-09-17T08:51:58.259Z,7.10
2023-09-17T08:54:38.462Z,6.20
2023-09-17T08:57:07.037Z,5.82
2023-09-17T08:59:35.381Z,5.45
2023-09-17T09:02:08.746Z,6.37
2023-09-17T09:04:37.199Z,5.65
2023-09-17T09:07:05.470Z,6.15
2023-09-17T09:09:33.260Z,6.18
2023-09-17T09:12:00.169Z,5.90
2023-09-17T09:14:27.064Z,5.25
2023-09-17T09:16:53.825Z,5.93
2023-09-17T09:19:20.421Z,5.20
2023-09-17T09:21:46.996Z,6.30
2023-09-17T09:24:13.563Z,5.72
2023-09-17T09:26:41.255Z,5.45
2023-09-17T09:29:09.606Z,5.13
2023-09-17T09:31:36.662Z,5.27
2023-09-17T09:34:04.241Z,5.40
2023-09-17T09:36:35.581Z,5.70
2023-09-17T09:39:03.120Z,4.72
2023-09-17T09:41:34.490Z,4.78
2023-09-17T09:44:01.631Z,4.75
2023-09-17T09:46:29.967Z,4.55
2023-09-17T09:49:03.592Z,4.65
2023-09-17T09:51:32.450Z,4.05
2023-09-17T09:53:59.063Z,4.90
2023-09-17T09:56:29.684Z,5.05
2023-09-17T09:58:57.102Z,4.72
2023-09-17T10:01:24.069Z,5.05
2023-09-17T10:03:52.004Z,4.70
2023-09-17T10:06:19.225Z,5.28
2023-09-17T10:08:47.673Z,4.63
2023-09-17T10:11:15.846Z,4.80
2023-09-17T10:13:43.663Z,4.53
2023-09-17T10:16:10.806Z,4.70
2023-09-17T10:18:39.650Z,4.47
2023-09-17T10:21:06.817Z,4.57
2023-09-17T10:23:35.105Z,5.10
2023-09-17T10:26:04.338Z,4.82
2023-09-17T10:28:32.582Z,4.80
2023-09-17T10:31:01.037Z,4.13
2023-09-17T10:33:30.856Z,5.28
2023-09-17T10:36:00.471Z,5.05
2023-09-17T10:38:28.646Z,4.97
2023-09-17T10:40:57.593Z,4.37
2023-09-17T10:43:25.658Z,5.63
2023-09-17T10:45:56.118Z,4.68
2023-09-17T10:48:23.055Z,4.85
2023-09-17T10:50:50.564Z,4.10
2023-09-17T10:53:17.372Z,4.72
2023-09-17T10:55:54.291Z,4.30
2023-09-17T10:58:37.891Z,4.32
2023-09-17T11:01:07.755Z,4.20
2023-09-17T11:03:38.451Z,5.20
2023-09-17T11:06:15.113Z,4.13
2023-09-17T11:08:46.114Z,3.80
2023-09-17T11:11:42.050Z,3.55
2023-09-17T11:14:09.794Z,3.92
2023-09-17T11:16:37.656Z,3.60
2023-09-17T11:19:04.572Z,3.78
2023-09-17T11:21:31.170Z,3.53
2023-09-17T11:23:57.968Z,4.45
2023-09-17T11:26:28.357Z,3.63
2023-09-17T11:28:57.272Z,3.55
2023-09-17T11:31:27.641Z,3.25
2023-09-17T11:33:55.767Z,3.50
2023-09-17T11:36:22.749Z,3.42
2023-09-17T11:38:49.411Z,4.93
2023-09-17T11:41:17.501Z,3.85
2023-09-17T11:43:47.570Z,3.40
2023-09-17T11:46:15.224Z,3.53
2023-09-17T11:48:45.382Z,3.70
2023-09-17T11:51:20.981Z,3.40
2023-09-17T11:54:01.468Z,3.00
2023-09-17T11:56:31.440Z,3.67
2023-09-17T11:59:03.856Z,3.22
2023-09-17T12:01:44.717Z,3.38
2023-09-17T12:04:12.595Z,3.08
2023-09-17T12:06:42.302Z,3.20
2023-09-17T12:09:18.247Z,2.75
2023-09-17T12:11:50.061Z,3.30
2023-09-17T12:14:17.859Z,2.90
2023-09-17T12:16:47.351Z,2.80
2023-09-17T12:19:18.479Z,3.25
2023-09-17T12:21:48.106Z,3.40
2023-09-17T12:24:27.271Z,2.72
2023-09-17T12:27:07.138Z,2.22
2023-09-17T12:29:38.734Z,2.40
2023-09-17T12:32:06.389Z,2.78
2023-09-17T12:34:37.275Z,2.47
2023-09-17T12:37:06.210Z,2.40
2023-09-17T12:39:32.945Z,2.45
2023-09-17T12:41:59.506Z,2.97
2023-09-17T12:44:27.480Z,2.50
2023-09-17T12:46:54.655Z,2.78
2023-09-17T12:49:25.125Z,2.50
2023-09-17T12:51:54.817Z,2.40
2023-09-17T12:54:22.839Z,2.45
2023-09-17T12:56:51.055Z,2.60
2023-09-17T12:59:27.219Z,2.58
2023-09-17T13:01:55.084Z,2.30
2023-09-17T13:04:52.375Z,2.70
2023-09-17T13:07:21.730Z,2.30
2023-09-17T13:09:50.532Z,2.30
2023-09-17T13:12:18.709Z,2.10
2023-09-17T13:14:46.362Z,2.20
2023-09-17T13:17:13.211Z,2.45
2023-09-17T13:19:40.207Z,2.47
2023-09-17T13:22:07.031Z,3.15
2023-09-17T13:24:35.383Z,2.47
2023-09-17T13:27:04.521Z,2.50
2023-09-17T13:32:12.726Z,2.50
2023-09-17T13:34:42.179Z,2.50
2023-09-17T13:37:09.996Z,2.15
2023-09-17T13:39:44.389Z,2.45
2023-09-17T13:42:11.527Z,2.20
2023-09-17T13:44:38.467Z,1.77
2023-09-17T13:47:21.587Z,2.30
2023-09-17T13:49:49.362Z,3.00
2023-09-17T13:52:16.043Z,2.65
2023-09-17T13:54:43.988Z,2.95
2023-09-17T13:57:11.228Z,3.00
2023-09-17T13:59:37.792Z,2.30
2023-09-17T14:02:05.213Z,2.20
2023-09-17T14:04:32.102Z,2.05
2023-09-17T14:06:58.949Z,1.98
2023-09-17T14:09:25.798Z,1.88
2023-09-17T14:11:52.574Z,2.10
2023-09-17T14:14:19.440Z,2.00
2023-09-17T14:16:47.363Z,2.17
2023-09-17T14:19:18.981Z,2.30
2023-09-17T14:21:46.720Z,2.10
2023-09-17T14:24:13.469Z,2.53
2023-09-17T14:26:40.414Z,2.17
2023-09-17T14:29:07.026Z,1.92
2023-09-17T14:31:33.789Z,2.05
2023-09-17T14:34:01.110Z,3.72
2023-09-17T14:36:27.806Z,4.35
2023-09-17T14:38:56.057Z,3.22
2023-09-17T14:41:22.764Z,2.83
2023-09-17T14:43:49.394Z,2.55
2023-09-17T14:46:15.974Z,2.20
2023-09-17T14:48:42.541Z,2.00
2023-09-17T14:51:10.257Z,1.95
2023-09-17T14:53:36.893Z,1.90
2023-09-17T14:56:03.543Z,1.90
2023-09-17T14:58:30.167Z,2.20
2023-09-17T15:00:56.819Z,2.03
2023-09-17T15:03:26.242Z,2.03
2023-09-17T15:05:53.130Z,2.00
2023-09-17T15:08:19.754Z,2.10
2023-09-17T15:10:46.559Z,2.35
2023-09-17T15:13:13.401Z,2.25
2023-09-17T15:15:40.607Z,2.40
2023-09-17T15:18:07.480Z,2.20
2023-09-17T15:20:35.202Z,1.80
2023-09-17T15:23:01.862Z,1.90
2023-09-17T15:25:28.513Z,2.22
2023-09-17T15:27:55.074Z,2.05
2023-09-17T15:30:23.154Z,2.20
2023-09-17T15:32:49.922Z,2.30
2023-09-17T15:35:21.110Z,3.45
2023-09-17T15:37:48.140Z,3.05
2023-09-17T15:40:15.006Z,2.90
2023-09-17T15:42:45.240Z,2.47
2023-09-17T15:45:12.776Z,2.95
2023-09-17T15:47:41.518Z,2.20
2023-09-17T15:50:11.719Z,3.40
2023-09-17T15:52:38.448Z,2.60
2023-09-17T15:55:05.675Z,2.60
2023-09-17T15:57:32.462Z,2.50
2023-09-17T15:59:59.619Z,2.30
2023-09-17T16:02:26.465Z,2.78
2023-09-17T16:04:53.410Z,2.72
2023-09-17T16:07:20.239Z,2.65
2023-09-17T16:09:46.958Z,2.85
2023-09-17T16:12:13.519Z,3.25
2023-09-17T16:14:40.092Z,2.78
2023-09-17T16:17:06.878Z,2.65
2023-09-17T16:19:44.859Z,3.05
2023-09-17T16:22:12.973Z,4.30
2023-09-17T16:24:39.546Z,5.00
2023-09-17T16:27:08.397Z,4.72
2023-09-17T16:29:35.008Z,4.15
2023-09-17T16:32:01.719Z,4.30
2023-09-17T16:34:28.488Z,3.10
2023-09-17T16:36:55.112Z,3.67
2023-09-17T16:39:21.725Z,3.67
2023-09-17T16:41:48.433Z,3.63
2023-09-17T16:44:15.099Z,3.88
2023-09-17T16:46:41.664Z,4.10
2023-09-17T16:49:08.367Z,4.13
2023-09-17T16:51:37.882Z,4.70
2023-09-17T16:54:04.731Z,4.75
2023-09-17T16:56:31.421Z,5.22
2023-09-17T16:59:02.763Z,5.00
2023-09-17T17:01:32.646Z,5.30
2023-09-17T17:03:59.413Z,5.78
2023-09-17T17:06:26.145Z,5.13
2023-09-17T17:08:54.678Z,4.90
2023-09-17T17:11:22.003Z,4.85
2023-09-17T17:13:48.777Z,5.10
2023-09-17T17:16:15.486Z,4.93
2023-09-17T17:18:42.170Z,4.68
2023-09-17T17:21:09.693Z,4.85
2023-09-17T17:23:37.204Z,4.72
2023-09-17T17:26:04.121Z,4.65
2023-09-17T17:28:30.779Z,4.68
2023-09-17T17:30:57.502Z,5.43
2023-09-17T17:33:24.305Z,4.90
2023-09-17T17:35:50.841Z,5.10
2023-09-17T17:38:17.812Z,5.53
2023-09-17T17:40:44.394Z,4.20
2023-09-17T17:43:10.985Z,4.30
2023-09-17T17:45:38.752Z,4.30
2023-09-17T17:48:06.100Z,4.07
2023-09-17T17:50:32.867Z,3.80
2023-09-17T17:52:59.609Z,4.20
2023-09-17T17:55:26.332Z,4.53
2023-09-17T17:57:53.032Z,4.57
2023-09-17T18:00:19.715Z,4.57
2023-09-17T18:02:48.421Z,4.40
2023-09-17T18:05:15.193Z,4.45
2023-09-17T18:07:43.845Z,4.80
2023-09-17T18:10:11.554Z,5.30
2023-09-17T18:12:39.867Z,5.45
2023-09-17T18:15:09.379Z,5.93
2023-09-17T18:17:37.065Z,5.70
2023-09-17T18:20:04.069Z,5.75
2023-09-17T18:22:31.348Z,6.30
2023-09-17T18:24:57.966Z,6.78
2023-09-17T18:27:25.270Z,7.75
2023-09-17T18:29:51.944Z,7.53
2023-09-17T18:32:19.365Z,7.50
2023-09-17T18:34:46.045Z,7.03
2023-09-17T18:37:12.687Z,6.70
2023-09-17T18:39:39.340Z,7.28
2023-09-17T18:42:06.337Z,7.50
2023-09-17T18:44:33.630Z,6.38
2023-09-17T18:47:00.246Z,6.00
2023-09-17T18:49:27.000Z,5.88
2023-09-17T18:51:54.556Z,5.00
2023-09-17T18:54:21.762Z,5.85
2023-09-17T18:56:48.501Z,4.95
2023-09-17T18:59:16.529Z,4.82
2023-09-17T19:01:43.355Z,5.45
2023-09-17T19:04:10.092Z,5.47
2023-09-17T19:06:37.240Z,5.80
2023-09-17T19:09:07.092Z,5.30
2023-09-17T19:11:34.849Z,5.55
2023-09-17T19:14:01.932Z,4.63
2023-09-17T19:16:29.059Z,4.60
2023-09-17T19:18:55.659Z,5.00
2023-09-17T19:21:23.840Z,4.15
2023-09-17T19:23:51.828Z,4.45
2023-09-17T19:26:20.830Z,5.00
2023-09-17T19:28:47.848Z,4.28
2023-09-17T19:31:14.562Z,4.05
2023-09-17T19:33:41.346Z,4.30
2023-09-17T19:36:08.048Z,3.80
2023-09-17T19:38:35.651Z,4.70
2023-09-17T19:41:03.205Z,4.30
2023-09-17T19:43:29.890Z,4.10
2023-09-17T19:45:57.952Z,4.35
2023-09-17T19:48:25.367Z,4.30
2023-09-17T19:50:52.042Z,4.68
2023-09-17T19:53:21.989Z,4.40
2023-09-17T19:55:48.661Z,4.88
2023-09-17T19:58:15.657Z,4.65
2023-09-17T20:00:42.840Z,4.95
2023-09-17T20:03:09.958Z,4.88
2023-09-17T20:05:37.073Z,4.78
2023-09-17T20:08:08.382Z,4.88
2023-09-17T20:10:37.748Z,4.90
2023-09-17T20:13:04.453Z,5.97
2023-09-17T20:15:31.079Z,5.40
2023-09-17T20:17:59.106Z,6.70
2023-09-17T20:20:27.049Z,6.85
2023-09-17T20:22:54.040Z,5.82
2023-09-17T20:25:22.738Z,6.47
2023-09-17T20:28:10.255Z,5.82
2023-09-17T20:30:40.381Z,6.13
2023-09-17T20:33:08.096Z,5.50
2023-09-17T20:35:37.819Z,6.10
2023-09-17T20:38:04.942Z,5.20
2023-09-17T20:40:31.672Z,6.00
2023-09-17T20:42:58.889Z,5.47
2023-09-17T20:45:25.626Z,4.95
2023-09-17T20:47:54.328Z,5.28
2023-09-17T20:50:21.338Z,5.28
2023-09-17T20:52:47.992Z,6.03
2023-09-17T20:55:14.589Z,5.20
2023-09-17T20:57:41.163Z,6.30
2023-09-17T21:00:08.665Z,6.07
2023-09-17T21:02:35.358Z,6.40
2023-09-17T21:05:03.441Z,5.72
2023-09-17T21:07:30.202Z,5.20
2023-09-17T21:09:57.681Z,6.75
2023-09-17T21:12:24.936Z,6.18
2023-09-17T21:14:52.031Z,5.68
2023-09-17T21:17:19.660Z,6.25
2023-09-17T21:19:46.717Z,6.10
2023-09-17T21:22:13.754Z,6.47
2023-09-17T21:24:40.317Z,5.15
2023-09-17T21:27:07.150Z,5.80
2023-09-17T21:29:36.764Z,6.03
2023-09-17T21:32:03.840Z,6.35
2023-09-17T21:34:30.784Z,6.55
2023-09-17T21:36:57.471Z,6.05
2023-09-17T21:39:32.416Z,6.00
2023-09-17T21:41:59.307Z,5.88
2023-09-17T21:44:26.225Z,7.05
2023-09-17T21:46:56.124Z,6.18
2023-09-17T21:49:23.055Z,6.43
2023-09-17T21:51:49.580Z,6.05
2023-09-17T21:54:16.232Z,6.15
2023-09-17T21:56:43.289Z,6.35
2023-09-17T21:59:10.291Z,6.90
2023-09-17T22:01:36.956Z,6.50
2023-09-17T22:04:04.133Z,6.45
2023-09-17T22:06:30.769Z,7.10
2023-09-17T22:08:57.357Z,6.75
2023-09-17T22:11:23.886Z,6.03
2023-09-17T22:13:50.645Z,6.10
2023-09-17T22:16:17.341Z,6.15
2023-09-17T22:18:43.947Z,6.40
2023-09-17T22:21:10.750Z,6.22
2023-09-17T22:23:37.664Z,9.70
2023-09-17T22:26:08.654Z,8.63
2023-09-17T22:28:35.834Z,8.38
2023-09-17T22:31:12.955Z,7.75
2023-09-17T22:33:41.283Z,8.05
2023-09-17T22:36:09.709Z,7.57
2023-09-17T22:38:39.535Z,7.87
2023-09-17T22:41:06.245Z,7.50
2023-09-17T22:43:32.850Z,7.72
2023-09-17T22:45:59.471Z,7.55
2023-09-17T22:48:26.411Z,8.00
2023-09-17T22:50:55.396Z,8.50
2023-09-17T22:53:22.133Z,8.30
2023-09-17T22:55:48.724Z,7.97
2023-09-17T22:58:15.288Z,8.02
2023-09-17T23:00:44.874Z,8.48
2023-09-17T23:03:11.711Z,7.90
2023-09-17T23:05:38.566Z,7.70
2023-09-17T23:08:05.454Z,7.72
2023-09-17T23:10:33.024Z,7.65
2023-09-17T23:12:59.567Z,8.52
2023-09-17T23:15:28.520Z,8.65
2023-09-17T23:17:55.164Z,8.18
2023-09-17T23:20:21.801Z,9.18
2023-09-17T23:22:48.455Z,7.88
2023-09-17T23:25:15.541Z,8.20
2023-09-17T23:27:42.218Z,8.55
2023-09-17T23:30:09.382Z,7.75
2023-09-17T23:32:36.145Z,7.57
2023-09-17T23:35:05.953Z,7.47
2023-09-17T23:37:32.973Z,7.15
2023-09-17T23:39:59.702Z,7.85
2023-09-17T23:42:26.353Z,8.40
2023-09-17T23:44:53.068Z,7.88
2023-09-17T23:47:19.730Z,8.07
2023-09-17T23:49:46.316Z,8.63
2023-09-17T23:52:12.996Z,8.48
2023-09-17T23:54:39.638Z,7.90
2023-09-17T23:57:06.464Z,8.32
2023-09-17T23:59:40.688Z,7.88
